
<gpx xmlns="http://www.topografix.com/GPX/1/1" xmlns:gpxx="http://www.garmin.com/xmlschemas/GpxExtensions/v3" xmlns:xsi="http://www.w3.org/2001/XMLSchema-instance" version="1.1" creator="Adze - http://kobotsw.com/apps/adze" xsi:schemaLocation="http://www.topografix.com/GPX/1/1 http://www.topografix.com/GPX/1/1/gpx.xsd http://www.garmin.com/xmlschemas/GpxExtensions/v3 http://www.garmin.com/xmlschemas/GpxExtensionsv3.xsd">
    <metadata>
        <name>Untitled Document</name>
        <link href="http://www.garmin.com"></link>
        <time>2018-02-26T07:12:05.992Z</time>
    </metadata>
    <wpt lon="99.645007" lat="13.186346">
        <ele>105.000000</ele>
        <name>Saturday Water</name>
        <cmt>23-NOV-13 15:38:49</cmt>
        <desc>23-NOV-13 15:38:49</desc>
        <sym>Drinking Water</sym>
        <extensions>
            <gpxx:WaypointExtension xmlns:gpxx="http://www.garmin.com/xmlschemas/GpxExtensions/v3">
                <gpxx:DisplayMode>SymbolOnly</gpxx:DisplayMode>
            </gpxx:WaypointExtension>
        </extensions>
    </wpt>
    <wpt lon="99.679750" lat="13.185569">
        <ele>33.000000</ele>
        <name>Thanatthichaburi Resort</name>
        <cmt>23-NOV-13 10:33:10</cmt>
        <desc>23-NOV-13 10:33:10</desc>
        <sym>Lodging</sym>
        <extensions>
            <gpxx:WaypointExtension xmlns:gpxx="http://www.garmin.com/xmlschemas/GpxExtensions/v3">
                <gpxx:DisplayMode>SymbolOnly</gpxx:DisplayMode>
            </gpxx:WaypointExtension>
        </extensions>
    </wpt>
    <trk>
        <name>Saturday</name>
        <extensions>
            <gpxx:TrackExtension xmlns:gpxx="http://www.garmin.com/xmlschemas/GpxExtensions/v3">
                <gpxx:DisplayColor>Red</gpxx:DisplayColor>
            </gpxx:TrackExtension>
        </extensions>
        <trkseg>
            <trkpt lon="99.679462" lat="13.184829">
                <ele>125.110000</ele>
                <time>2013-11-23T05:59:33Z</time>
            </trkpt>
            <trkpt lon="99.680127" lat="13.185105">
                <ele>123.670000</ele>
                <time>2013-11-23T06:00:22Z</time>
            </trkpt>
            <trkpt lon="99.680654" lat="13.184404">
                <ele>122.220000</ele>
                <time>2013-11-23T06:00:44Z</time>
            </trkpt>
            <trkpt lon="99.681578" lat="13.184341">
                <ele>119.820000</ele>
                <time>2013-11-23T06:01:00Z</time>
            </trkpt>
            <trkpt lon="99.684068" lat="13.184732">
                <ele>123.670000</ele>
                <time>2013-11-23T06:02:23Z</time>
            </trkpt>
            <trkpt lon="99.685095" lat="13.184154">
                <ele>124.630000</ele>
                <time>2013-11-23T06:02:50Z</time>
            </trkpt>
            <trkpt lon="99.685281" lat="13.183463">
                <ele>122.710000</ele>
                <time>2013-11-23T06:03:08Z</time>
            </trkpt>
            <trkpt lon="99.682917" lat="13.179314">
                <ele>107.810000</ele>
                <time>2013-11-23T06:04:58Z</time>
            </trkpt>
            <trkpt lon="99.683142" lat="13.178577">
                <ele>102.520000</ele>
                <time>2013-11-23T06:05:13Z</time>
            </trkpt>
            <trkpt lon="99.681448" lat="13.177272">
                <ele>97.230000</ele>
                <time>2013-11-23T06:05:51Z</time>
            </trkpt>
            <trkpt lon="99.681918" lat="13.175735">
                <ele>97.230000</ele>
                <time>2013-11-23T06:06:17Z</time>
            </trkpt>
            <trkpt lon="99.681384" lat="13.174879">
                <ele>97.230000</ele>
                <time>2013-11-23T06:06:34Z</time>
            </trkpt>
            <trkpt lon="99.680074" lat="13.174566">
                <ele>96.750000</ele>
                <time>2013-11-23T06:06:56Z</time>
            </trkpt>
            <trkpt lon="99.679890" lat="13.174239">
                <ele>96.750000</ele>
                <time>2013-11-23T06:07:03Z</time>
            </trkpt>
            <trkpt lon="99.680087" lat="13.173781">
                <ele>95.790000</ele>
                <time>2013-11-23T06:07:11Z</time>
            </trkpt>
            <trkpt lon="99.679667" lat="13.174490">
                <ele>94.830000</ele>
                <time>2013-11-23T06:07:31Z</time>
            </trkpt>
            <trkpt lon="99.677136" lat="13.174026">
                <ele>94.830000</ele>
                <time>2013-11-23T06:08:22Z</time>
            </trkpt>
            <trkpt lon="99.677734" lat="13.177292">
                <ele>95.310000</ele>
                <time>2013-11-23T06:09:14Z</time>
            </trkpt>
            <trkpt lon="99.676998" lat="13.177751">
                <ele>96.270000</ele>
                <time>2013-11-23T06:09:31Z</time>
            </trkpt>
            <trkpt lon="99.676163" lat="13.178074">
                <ele>96.270000</ele>
                <time>2013-11-23T06:09:46Z</time>
            </trkpt>
            <trkpt lon="99.675671" lat="13.177886">
                <ele>97.710000</ele>
                <time>2013-11-23T06:10:07Z</time>
            </trkpt>
            <trkpt lon="99.676001" lat="13.178680">
                <ele>94.830000</ele>
                <time>2013-11-23T06:10:34Z</time>
            </trkpt>
            <trkpt lon="99.673147" lat="13.181287">
                <ele>100.110000</ele>
                <time>2013-11-23T06:11:59Z</time>
            </trkpt>
            <trkpt lon="99.670553" lat="13.180616">
                <ele>97.230000</ele>
                <time>2013-11-23T06:12:40Z</time>
            </trkpt>
            <trkpt lon="99.670693" lat="13.179744">
                <ele>98.670000</ele>
                <time>2013-11-23T06:13:00Z</time>
            </trkpt>
            <trkpt lon="99.671483" lat="13.178611">
                <ele>99.630000</ele>
                <time>2013-11-23T06:13:25Z</time>
            </trkpt>
            <trkpt lon="99.669887" lat="13.177485">
                <ele>107.810000</ele>
                <time>2013-11-23T06:14:15Z</time>
            </trkpt>
            <trkpt lon="99.670221" lat="13.177074">
                <ele>109.250000</ele>
                <time>2013-11-23T06:14:29Z</time>
            </trkpt>
            <trkpt lon="99.670670" lat="13.175548">
                <ele>107.810000</ele>
                <time>2013-11-23T06:14:55Z</time>
            </trkpt>
            <trkpt lon="99.670528" lat="13.175122">
                <ele>107.320000</ele>
                <time>2013-11-23T06:15:03Z</time>
            </trkpt>
            <trkpt lon="99.669947" lat="13.175016">
                <ele>109.250000</ele>
                <time>2013-11-23T06:15:18Z</time>
            </trkpt>
            <trkpt lon="99.669939" lat="13.174431">
                <ele>110.690000</ele>
                <time>2013-11-23T06:15:30Z</time>
            </trkpt>
            <trkpt lon="99.670442" lat="13.173656">
                <ele>116.940000</ele>
                <time>2013-11-23T06:16:05Z</time>
            </trkpt>
            <trkpt lon="99.669896" lat="13.174451">
                <ele>111.170000</ele>
                <time>2013-11-23T06:16:44Z</time>
            </trkpt>
            <trkpt lon="99.670121" lat="13.175158">
                <ele>108.770000</ele>
                <time>2013-11-23T06:17:15Z</time>
            </trkpt>
            <trkpt lon="99.670625" lat="13.175253">
                <ele>106.840000</ele>
                <time>2013-11-23T06:17:35Z</time>
            </trkpt>
            <trkpt lon="99.670284" lat="13.177038">
                <ele>107.320000</ele>
                <time>2013-11-23T06:18:43Z</time>
            </trkpt>
            <trkpt lon="99.671309" lat="13.177628">
                <ele>100.600000</ele>
                <time>2013-11-23T06:19:15Z</time>
            </trkpt>
            <trkpt lon="99.670291" lat="13.177076">
                <ele>107.320000</ele>
                <time>2013-11-23T06:19:56Z</time>
            </trkpt>
            <trkpt lon="99.670637" lat="13.175585">
                <ele>107.320000</ele>
                <time>2013-11-23T06:20:28Z</time>
            </trkpt>
            <trkpt lon="99.670479" lat="13.175135">
                <ele>107.320000</ele>
                <time>2013-11-23T06:20:36Z</time>
            </trkpt>
            <trkpt lon="99.670001" lat="13.175159">
                <ele>108.290000</ele>
                <time>2013-11-23T06:20:47Z</time>
            </trkpt>
            <trkpt lon="99.669926" lat="13.174465">
                <ele>111.170000</ele>
                <time>2013-11-23T06:21:13Z</time>
            </trkpt>
            <trkpt lon="99.669549" lat="13.174177">
                <ele>114.050000</ele>
                <time>2013-11-23T06:21:48Z</time>
            </trkpt>
            <trkpt lon="99.669268" lat="13.174888">
                <ele>114.530000</ele>
                <time>2013-11-23T06:22:16Z</time>
            </trkpt>
            <trkpt lon="99.668347" lat="13.175665">
                <ele>119.820000</ele>
                <time>2013-11-23T06:23:02Z</time>
            </trkpt>
            <trkpt lon="99.667707" lat="13.175702">
                <ele>124.630000</ele>
                <time>2013-11-23T06:23:44Z</time>
            </trkpt>
            <trkpt lon="99.667480" lat="13.175459">
                <ele>127.510000</ele>
                <time>2013-11-23T06:24:02Z</time>
            </trkpt>
            <trkpt lon="99.667613" lat="13.175038">
                <ele>131.840000</ele>
                <time>2013-11-23T06:24:26Z</time>
            </trkpt>
            <trkpt lon="99.667339" lat="13.174893">
                <ele>132.800000</ele>
                <time>2013-11-23T06:24:45Z</time>
            </trkpt>
            <trkpt lon="99.666288" lat="13.175441">
                <ele>137.610000</ele>
                <time>2013-11-23T06:25:26Z</time>
            </trkpt>
            <trkpt lon="99.666000" lat="13.175411">
                <ele>138.570000</ele>
                <time>2013-11-23T06:25:36Z</time>
            </trkpt>
            <trkpt lon="99.665158" lat="13.175175">
                <ele>133.280000</ele>
                <time>2013-11-23T06:25:57Z</time>
            </trkpt>
            <trkpt lon="99.664877" lat="13.174302">
                <ele>127.510000</ele>
                <time>2013-11-23T06:26:20Z</time>
            </trkpt>
            <trkpt lon="99.666291" lat="13.174081">
                <ele>135.200000</ele>
                <time>2013-11-23T06:26:50Z</time>
            </trkpt>
            <trkpt lon="99.666888" lat="13.173669">
                <ele>133.280000</ele>
                <time>2013-11-23T06:27:04Z</time>
            </trkpt>
            <trkpt lon="99.666649" lat="13.172295">
                <ele>133.280000</ele>
                <time>2013-11-23T06:27:52Z</time>
            </trkpt>
            <trkpt lon="99.666749" lat="13.171422">
                <ele>128.950000</ele>
                <time>2013-11-23T06:28:15Z</time>
            </trkpt>
            <trkpt lon="99.666454" lat="13.170206">
                <ele>122.220000</ele>
                <time>2013-11-23T06:28:45Z</time>
            </trkpt>
            <trkpt lon="99.666325" lat="13.169840">
                <ele>118.380000</ele>
                <time>2013-11-23T06:28:54Z</time>
            </trkpt>
            <trkpt lon="99.668786" lat="13.168627">
                <ele>107.810000</ele>
                <time>2013-11-23T06:29:39Z</time>
            </trkpt>
            <trkpt lon="99.670185" lat="13.169632">
                <ele>112.610000</ele>
                <time>2013-11-23T06:30:21Z</time>
            </trkpt>
            <trkpt lon="99.670558" lat="13.169060">
                <ele>111.650000</ele>
                <time>2013-11-23T06:30:36Z</time>
            </trkpt>
            <trkpt lon="99.671432" lat="13.168934">
                <ele>122.710000</ele>
                <time>2013-11-23T06:31:33Z</time>
            </trkpt>
            <trkpt lon="99.671275" lat="13.168122">
                <ele>114.050000</ele>
                <time>2013-11-23T06:31:52Z</time>
            </trkpt>
            <trkpt lon="99.670688" lat="13.167326">
                <ele>103.480000</ele>
                <time>2013-11-23T06:32:06Z</time>
            </trkpt>
            <trkpt lon="99.671473" lat="13.165965">
                <ele>95.790000</ele>
                <time>2013-11-23T06:32:41Z</time>
            </trkpt>
            <trkpt lon="99.671392" lat="13.164457">
                <ele>100.600000</ele>
                <time>2013-11-23T06:33:31Z</time>
            </trkpt>
            <trkpt lon="99.671689" lat="13.164179">
                <ele>101.080000</ele>
                <time>2013-11-23T06:33:42Z</time>
            </trkpt>
            <trkpt lon="99.671977" lat="13.163740">
                <ele>99.630000</ele>
                <time>2013-11-23T06:33:59Z</time>
            </trkpt>
            <trkpt lon="99.671969" lat="13.163587">
                <ele>99.150000</ele>
                <time>2013-11-23T06:34:03Z</time>
            </trkpt>
            <trkpt lon="99.670752" lat="13.162091">
                <ele>102.520000</ele>
                <time>2013-11-23T06:34:49Z</time>
            </trkpt>
            <trkpt lon="99.669174" lat="13.161191">
                <ele>107.320000</ele>
                <time>2013-11-23T06:35:36Z</time>
            </trkpt>
            <trkpt lon="99.668659" lat="13.160630">
                <ele>109.250000</ele>
                <time>2013-11-23T06:35:53Z</time>
            </trkpt>
            <trkpt lon="99.668352" lat="13.160223">
                <ele>110.210000</ele>
                <time>2013-11-23T06:36:04Z</time>
            </trkpt>
            <trkpt lon="99.667154" lat="13.159974">
                <ele>114.530000</ele>
                <time>2013-11-23T06:36:32Z</time>
            </trkpt>
            <trkpt lon="99.666467" lat="13.158791">
                <ele>119.820000</ele>
                <time>2013-11-23T06:37:06Z</time>
            </trkpt>
            <trkpt lon="99.665757" lat="13.158779">
                <ele>121.740000</ele>
                <time>2013-11-23T06:37:24Z</time>
            </trkpt>
            <trkpt lon="99.664091" lat="13.157945">
                <ele>125.110000</ele>
                <time>2013-11-23T06:38:18Z</time>
            </trkpt>
            <trkpt lon="99.663849" lat="13.157372">
                <ele>124.630000</ele>
                <time>2013-11-23T06:38:40Z</time>
            </trkpt>
            <trkpt lon="99.662875" lat="13.156560">
                <ele>133.280000</ele>
                <time>2013-11-23T06:39:30Z</time>
            </trkpt>
            <trkpt lon="99.662826" lat="13.156453">
                <ele>133.280000</ele>
                <time>2013-11-23T06:39:35Z</time>
            </trkpt>
            <trkpt lon="99.663735" lat="13.155326">
                <ele>135.200000</ele>
                <time>2013-11-23T06:40:01Z</time>
            </trkpt>
            <trkpt lon="99.664101" lat="13.155052">
                <ele>131.840000</ele>
                <time>2013-11-23T06:40:18Z</time>
            </trkpt>
            <trkpt lon="99.664733" lat="13.155117">
                <ele>128.950000</ele>
                <time>2013-11-23T06:40:58Z</time>
            </trkpt>
            <trkpt lon="99.664666" lat="13.154015">
                <ele>133.280000</ele>
                <time>2013-11-23T06:41:45Z</time>
            </trkpt>
            <trkpt lon="99.666421" lat="13.153727">
                <ele>130.400000</ele>
                <time>2013-11-23T06:42:31Z</time>
            </trkpt>
            <trkpt lon="99.667804" lat="13.153573">
                <ele>123.670000</ele>
                <time>2013-11-23T06:43:25Z</time>
            </trkpt>
            <trkpt lon="99.667683" lat="13.153747">
                <ele>122.710000</ele>
                <time>2013-11-23T06:43:37Z</time>
            </trkpt>
            <trkpt lon="99.667721" lat="13.153538">
                <ele>123.190000</ele>
                <time>2013-11-23T06:44:03Z</time>
            </trkpt>
            <trkpt lon="99.667310" lat="13.153503">
                <ele>124.630000</ele>
                <time>2013-11-23T06:44:36Z</time>
            </trkpt>
            <trkpt lon="99.666893" lat="13.153362">
                <ele>126.070000</ele>
                <time>2013-11-23T06:44:51Z</time>
            </trkpt>
            <trkpt lon="99.666773" lat="13.153217">
                <ele>126.070000</ele>
                <time>2013-11-23T06:44:56Z</time>
            </trkpt>
            <trkpt lon="99.666736" lat="13.152165">
                <ele>122.220000</ele>
                <time>2013-11-23T06:45:18Z</time>
            </trkpt>
            <trkpt lon="99.666936" lat="13.153357">
                <ele>125.590000</ele>
                <time>2013-11-23T06:45:51Z</time>
            </trkpt>
            <trkpt lon="99.667250" lat="13.153504">
                <ele>124.630000</ele>
                <time>2013-11-23T06:46:01Z</time>
            </trkpt>
            <trkpt lon="99.666281" lat="13.153754">
                <ele>129.430000</ele>
                <time>2013-11-23T06:46:33Z</time>
            </trkpt>
            <trkpt lon="99.666002" lat="13.152295">
                <ele>125.590000</ele>
                <time>2013-11-23T06:47:40Z</time>
            </trkpt>
            <trkpt lon="99.664821" lat="13.152505">
                <ele>131.840000</ele>
                <time>2013-11-23T06:48:52Z</time>
            </trkpt>
            <trkpt lon="99.665953" lat="13.152336">
                <ele>125.110000</ele>
                <time>2013-11-23T06:49:30Z</time>
            </trkpt>
            <trkpt lon="99.666223" lat="13.153735">
                <ele>127.990000</ele>
                <time>2013-11-23T06:50:11Z</time>
            </trkpt>
            <trkpt lon="99.663809" lat="13.154171">
                <ele>133.760000</ele>
                <time>2013-11-23T06:51:18Z</time>
            </trkpt>
            <trkpt lon="99.664124" lat="13.155119">
                <ele>128.950000</ele>
                <time>2013-11-23T06:51:53Z</time>
            </trkpt>
            <trkpt lon="99.665188" lat="13.155242">
                <ele>124.630000</ele>
                <time>2013-11-23T06:52:42Z</time>
            </trkpt>
            <trkpt lon="99.664121" lat="13.155121">
                <ele>127.510000</ele>
                <time>2013-11-23T06:59:44Z</time>
            </trkpt>
            <trkpt lon="99.663941" lat="13.155852">
                <ele>140.010000</ele>
                <time>2013-11-23T07:00:42Z</time>
            </trkpt>
            <trkpt lon="99.663908" lat="13.156068">
                <ele>140.490000</ele>
                <time>2013-11-23T07:00:57Z</time>
            </trkpt>
            <trkpt lon="99.662887" lat="13.156236">
                <ele>128.950000</ele>
                <time>2013-11-23T07:02:37Z</time>
            </trkpt>
            <trkpt lon="99.662991" lat="13.156962">
                <ele>127.990000</ele>
                <time>2013-11-23T07:03:34Z</time>
            </trkpt>
            <trkpt lon="99.663184" lat="13.156974">
                <ele>126.550000</ele>
                <time>2013-11-23T07:03:44Z</time>
            </trkpt>
            <trkpt lon="99.662982" lat="13.156964">
                <ele>127.990000</ele>
                <time>2013-11-23T07:03:58Z</time>
            </trkpt>
            <trkpt lon="99.662743" lat="13.157284">
                <ele>126.070000</ele>
                <time>2013-11-23T07:04:19Z</time>
            </trkpt>
            <trkpt lon="99.662166" lat="13.157402">
                <ele>126.070000</ele>
                <time>2013-11-23T07:04:41Z</time>
            </trkpt>
            <trkpt lon="99.662968" lat="13.157391">
                <ele>124.150000</ele>
                <time>2013-11-23T07:05:21Z</time>
            </trkpt>
            <trkpt lon="99.662748" lat="13.158461">
                <ele>127.510000</ele>
                <time>2013-11-23T07:05:54Z</time>
            </trkpt>
            <trkpt lon="99.662571" lat="13.159184">
                <ele>126.070000</ele>
                <time>2013-11-23T07:06:17Z</time>
            </trkpt>
            <trkpt lon="99.661743" lat="13.160520">
                <ele>123.190000</ele>
                <time>2013-11-23T07:06:44Z</time>
            </trkpt>
            <trkpt lon="99.661019" lat="13.160611">
                <ele>128.470000</ele>
                <time>2013-11-23T07:07:02Z</time>
            </trkpt>
            <trkpt lon="99.660745" lat="13.161113">
                <ele>127.510000</ele>
                <time>2013-11-23T07:07:12Z</time>
            </trkpt>
            <trkpt lon="99.660768" lat="13.161395">
                <ele>126.070000</ele>
                <time>2013-11-23T07:07:17Z</time>
            </trkpt>
            <trkpt lon="99.661000" lat="13.162301">
                <ele>122.220000</ele>
                <time>2013-11-23T07:07:40Z</time>
            </trkpt>
            <trkpt lon="99.660755" lat="13.161133">
                <ele>127.510000</ele>
                <time>2013-11-23T07:08:44Z</time>
            </trkpt>
            <trkpt lon="99.661030" lat="13.160627">
                <ele>127.990000</ele>
                <time>2013-11-23T07:09:02Z</time>
            </trkpt>
            <trkpt lon="99.661725" lat="13.160559">
                <ele>122.220000</ele>
                <time>2013-11-23T07:09:28Z</time>
            </trkpt>
            <trkpt lon="99.662579" lat="13.159237">
                <ele>125.110000</ele>
                <time>2013-11-23T07:10:13Z</time>
            </trkpt>
            <trkpt lon="99.662679" lat="13.159236">
                <ele>124.150000</ele>
                <time>2013-11-23T07:10:15Z</time>
            </trkpt>
            <trkpt lon="99.665933" lat="13.161829">
                <ele>102.520000</ele>
                <time>2013-11-23T07:11:13Z</time>
            </trkpt>
            <trkpt lon="99.666287" lat="13.161681">
                <ele>105.400000</ele>
                <time>2013-11-23T07:11:22Z</time>
            </trkpt>
            <trkpt lon="99.666783" lat="13.160521">
                <ele>107.810000</ele>
                <time>2013-11-23T07:11:48Z</time>
            </trkpt>
            <trkpt lon="99.667355" lat="13.160613">
                <ele>107.810000</ele>
                <time>2013-11-23T07:11:59Z</time>
            </trkpt>
            <trkpt lon="99.667978" lat="13.161154">
                <ele>105.880000</ele>
                <time>2013-11-23T07:12:10Z</time>
            </trkpt>
            <trkpt lon="99.667901" lat="13.161835">
                <ele>103.480000</ele>
                <time>2013-11-23T07:12:27Z</time>
            </trkpt>
            <trkpt lon="99.668275" lat="13.162203">
                <ele>100.600000</ele>
                <time>2013-11-23T07:12:42Z</time>
            </trkpt>
            <trkpt lon="99.668316" lat="13.162835">
                <ele>99.630000</ele>
                <time>2013-11-23T07:13:13Z</time>
            </trkpt>
            <trkpt lon="99.668281" lat="13.163265">
                <ele>98.190000</ele>
                <time>2013-11-23T07:13:24Z</time>
            </trkpt>
            <trkpt lon="99.667133" lat="13.163226">
                <ele>101.080000</ele>
                <time>2013-11-23T07:13:53Z</time>
            </trkpt>
            <trkpt lon="99.666786" lat="13.164579">
                <ele>104.920000</ele>
                <time>2013-11-23T07:14:26Z</time>
            </trkpt>
            <trkpt lon="99.666691" lat="13.164883">
                <ele>104.440000</ele>
                <time>2013-11-23T07:14:35Z</time>
            </trkpt>
            <trkpt lon="99.666306" lat="13.164965">
                <ele>105.880000</ele>
                <time>2013-11-23T07:14:45Z</time>
            </trkpt>
            <trkpt lon="99.665169" lat="13.165126">
                <ele>108.290000</ele>
                <time>2013-11-23T07:15:11Z</time>
            </trkpt>
            <trkpt lon="99.665049" lat="13.164943">
                <ele>109.250000</ele>
                <time>2013-11-23T07:15:19Z</time>
            </trkpt>
            <trkpt lon="99.664930" lat="13.164938">
                <ele>109.250000</ele>
                <time>2013-11-23T07:15:26Z</time>
            </trkpt>
            <trkpt lon="99.664719" lat="13.165630">
                <ele>111.170000</ele>
                <time>2013-11-23T07:15:44Z</time>
            </trkpt>
            <trkpt lon="99.664330" lat="13.166789">
                <ele>112.610000</ele>
                <time>2013-11-23T07:16:09Z</time>
            </trkpt>
            <trkpt lon="99.663487" lat="13.167724">
                <ele>115.500000</ele>
                <time>2013-11-23T07:16:39Z</time>
            </trkpt>
            <trkpt lon="99.662830" lat="13.168397">
                <ele>116.940000</ele>
                <time>2013-11-23T07:16:57Z</time>
            </trkpt>
            <trkpt lon="99.662421" lat="13.168564">
                <ele>115.010000</ele>
                <time>2013-11-23T07:17:04Z</time>
            </trkpt>
            <trkpt lon="99.661186" lat="13.168612">
                <ele>119.340000</ele>
                <time>2013-11-23T07:17:34Z</time>
            </trkpt>
            <trkpt lon="99.660389" lat="13.168958">
                <ele>125.110000</ele>
                <time>2013-11-23T07:18:05Z</time>
            </trkpt>
            <trkpt lon="99.659590" lat="13.168581">
                <ele>127.510000</ele>
                <time>2013-11-23T07:18:33Z</time>
            </trkpt>
            <trkpt lon="99.660320" lat="13.167542">
                <ele>126.070000</ele>
                <time>2013-11-23T07:19:06Z</time>
            </trkpt>
            <trkpt lon="99.660030" lat="13.167224">
                <ele>129.920000</ele>
                <time>2013-11-23T07:19:24Z</time>
            </trkpt>
            <trkpt lon="99.656720" lat="13.166816">
                <ele>142.410000</ele>
                <time>2013-11-23T07:22:05Z</time>
            </trkpt>
            <trkpt lon="99.656396" lat="13.166492">
                <ele>155.870000</ele>
                <time>2013-11-23T07:23:41Z</time>
            </trkpt>
            <trkpt lon="99.656377" lat="13.166494">
                <ele>155.870000</ele>
                <time>2013-11-23T07:23:55Z</time>
            </trkpt>
            <trkpt lon="99.656639" lat="13.166785">
                <ele>142.410000</ele>
                <time>2013-11-23T07:25:18Z</time>
            </trkpt>
            <trkpt lon="99.657873" lat="13.166774">
                <ele>134.720000</ele>
                <time>2013-11-23T07:25:50Z</time>
            </trkpt>
            <trkpt lon="99.658262" lat="13.168017">
                <ele>130.880000</ele>
                <time>2013-11-23T07:26:18Z</time>
            </trkpt>
            <trkpt lon="99.658134" lat="13.168519">
                <ele>129.920000</ele>
                <time>2013-11-23T07:26:28Z</time>
            </trkpt>
            <trkpt lon="99.658091" lat="13.168768">
                <ele>128.470000</ele>
                <time>2013-11-23T07:26:32Z</time>
            </trkpt>
            <trkpt lon="99.658627" lat="13.169262">
                <ele>129.430000</ele>
                <time>2013-11-23T07:26:51Z</time>
            </trkpt>
            <trkpt lon="99.656630" lat="13.170569">
                <ele>119.820000</ele>
                <time>2013-11-23T07:27:37Z</time>
            </trkpt>
            <trkpt lon="99.656047" lat="13.171185">
                <ele>115.010000</ele>
                <time>2013-11-23T07:27:51Z</time>
            </trkpt>
            <trkpt lon="99.655873" lat="13.171982">
                <ele>112.130000</ele>
                <time>2013-11-23T07:28:06Z</time>
            </trkpt>
            <trkpt lon="99.655958" lat="13.171234">
                <ele>113.570000</ele>
                <time>2013-11-23T07:28:35Z</time>
            </trkpt>
            <trkpt lon="99.654072" lat="13.170083">
                <ele>124.150000</ele>
                <time>2013-11-23T07:29:31Z</time>
            </trkpt>
            <trkpt lon="99.653923" lat="13.169971">
                <ele>124.630000</ele>
                <time>2013-11-23T07:29:37Z</time>
            </trkpt>
            <trkpt lon="99.653296" lat="13.170793">
                <ele>132.320000</ele>
                <time>2013-11-23T07:30:36Z</time>
            </trkpt>
            <trkpt lon="99.653753" lat="13.171069">
                <ele>130.880000</ele>
                <time>2013-11-23T07:30:51Z</time>
            </trkpt>
            <trkpt lon="99.653616" lat="13.172221">
                <ele>132.320000</ele>
                <time>2013-11-23T07:31:19Z</time>
            </trkpt>
            <trkpt lon="99.653447" lat="13.173193">
                <ele>130.400000</ele>
                <time>2013-11-23T07:31:37Z</time>
            </trkpt>
            <trkpt lon="99.653059" lat="13.176213">
                <ele>110.690000</ele>
                <time>2013-11-23T07:32:49Z</time>
            </trkpt>
            <trkpt lon="99.654272" lat="13.177317">
                <ele>108.770000</ele>
                <time>2013-11-23T07:34:43Z</time>
            </trkpt>
            <trkpt lon="99.653926" lat="13.177730">
                <ele>107.810000</ele>
                <time>2013-11-23T07:34:53Z</time>
            </trkpt>
            <trkpt lon="99.654353" lat="13.178721">
                <ele>107.810000</ele>
                <time>2013-11-23T07:35:14Z</time>
            </trkpt>
            <trkpt lon="99.655431" lat="13.180301">
                <ele>101.560000</ele>
                <time>2013-11-23T07:35:44Z</time>
            </trkpt>
            <trkpt lon="99.656616" lat="13.179571">
                <ele>101.560000</ele>
                <time>2013-11-23T07:36:16Z</time>
            </trkpt>
            <trkpt lon="99.655525" lat="13.180193">
                <ele>101.080000</ele>
                <time>2013-11-23T07:36:55Z</time>
            </trkpt>
            <trkpt lon="99.655509" lat="13.180412">
                <ele>101.080000</ele>
                <time>2013-11-23T07:37:00Z</time>
            </trkpt>
            <trkpt lon="99.655696" lat="13.182541">
                <ele>99.630000</ele>
                <time>2013-11-23T07:37:48Z</time>
            </trkpt>
            <trkpt lon="99.655527" lat="13.180359">
                <ele>101.080000</ele>
                <time>2013-11-23T07:38:47Z</time>
            </trkpt>
            <trkpt lon="99.655523" lat="13.182829">
                <ele>99.630000</ele>
                <time>2013-11-23T07:39:40Z</time>
            </trkpt>
            <trkpt lon="99.654098" lat="13.182997">
                <ele>98.670000</ele>
                <time>2013-11-23T07:40:05Z</time>
            </trkpt>
            <trkpt lon="99.654085" lat="13.182172">
                <ele>97.710000</ele>
                <time>2013-11-23T07:40:29Z</time>
            </trkpt>
            <trkpt lon="99.653818" lat="13.182012">
                <ele>97.710000</ele>
                <time>2013-11-23T07:40:37Z</time>
            </trkpt>
            <trkpt lon="99.653599" lat="13.181713">
                <ele>97.230000</ele>
                <time>2013-11-23T07:40:43Z</time>
            </trkpt>
            <trkpt lon="99.652176" lat="13.181612">
                <ele>97.710000</ele>
                <time>2013-11-23T07:41:07Z</time>
            </trkpt>
            <trkpt lon="99.651953" lat="13.180966">
                <ele>96.750000</ele>
                <time>2013-11-23T07:41:17Z</time>
            </trkpt>
            <trkpt lon="99.651327" lat="13.180487">
                <ele>99.630000</ele>
                <time>2013-11-23T07:41:30Z</time>
            </trkpt>
            <trkpt lon="99.651134" lat="13.180353">
                <ele>99.630000</ele>
                <time>2013-11-23T07:41:34Z</time>
            </trkpt>
            <trkpt lon="99.650825" lat="13.180390">
                <ele>98.670000</ele>
                <time>2013-11-23T07:41:40Z</time>
            </trkpt>
            <trkpt lon="99.650160" lat="13.181218">
                <ele>96.750000</ele>
                <time>2013-11-23T07:41:56Z</time>
            </trkpt>
            <trkpt lon="99.650073" lat="13.180816">
                <ele>97.230000</ele>
                <time>2013-11-23T07:42:11Z</time>
            </trkpt>
            <trkpt lon="99.648695" lat="13.179637">
                <ele>99.630000</ele>
                <time>2013-11-23T07:42:47Z</time>
            </trkpt>
            <trkpt lon="99.648705" lat="13.180186">
                <ele>100.110000</ele>
                <time>2013-11-23T07:42:56Z</time>
            </trkpt>
            <trkpt lon="99.648091" lat="13.180557">
                <ele>100.600000</ele>
                <time>2013-11-23T07:43:07Z</time>
            </trkpt>
            <trkpt lon="99.647018" lat="13.180081">
                <ele>100.110000</ele>
                <time>2013-11-23T07:43:23Z</time>
            </trkpt>
            <trkpt lon="99.646200" lat="13.180715">
                <ele>100.110000</ele>
                <time>2013-11-23T07:43:39Z</time>
            </trkpt>
            <trkpt lon="99.642196" lat="13.179010">
                <ele>103.960000</ele>
                <time>2013-11-23T07:44:47Z</time>
            </trkpt>
            <trkpt lon="99.640789" lat="13.179197">
                <ele>110.210000</ele>
                <time>2013-11-23T07:45:16Z</time>
            </trkpt>
            <trkpt lon="99.640439" lat="13.178773">
                <ele>110.210000</ele>
                <time>2013-11-23T07:45:28Z</time>
            </trkpt>
            <trkpt lon="99.639996" lat="13.178847">
                <ele>111.650000</ele>
                <time>2013-11-23T07:45:42Z</time>
            </trkpt>
            <trkpt lon="99.639710" lat="13.178460">
                <ele>113.570000</ele>
                <time>2013-11-23T07:45:58Z</time>
            </trkpt>
            <trkpt lon="99.639567" lat="13.178433">
                <ele>113.570000</ele>
                <time>2013-11-23T07:46:03Z</time>
            </trkpt>
            <trkpt lon="99.639677" lat="13.179612">
                <ele>108.770000</ele>
                <time>2013-11-23T07:46:24Z</time>
            </trkpt>
            <trkpt lon="99.640389" lat="13.179675">
                <ele>114.050000</ele>
                <time>2013-11-23T07:46:53Z</time>
            </trkpt>
            <trkpt lon="99.640410" lat="13.180856">
                <ele>120.300000</ele>
                <time>2013-11-23T07:47:31Z</time>
            </trkpt>
            <trkpt lon="99.640413" lat="13.180917">
                <ele>120.300000</ele>
                <time>2013-11-23T07:47:35Z</time>
            </trkpt>
            <trkpt lon="99.640487" lat="13.182063">
                <ele>111.170000</ele>
                <time>2013-11-23T07:48:02Z</time>
            </trkpt>
            <trkpt lon="99.641025" lat="13.182284">
                <ele>103.000000</ele>
                <time>2013-11-23T07:48:15Z</time>
            </trkpt>
            <trkpt lon="99.640591" lat="13.182510">
                <ele>103.000000</ele>
                <time>2013-11-23T07:50:02Z</time>
            </trkpt>
            <trkpt lon="99.639821" lat="13.182160">
                <ele>103.000000</ele>
                <time>2013-11-23T07:50:26Z</time>
            </trkpt>
            <trkpt lon="99.639205" lat="13.182408">
                <ele>101.080000</ele>
                <time>2013-11-23T07:50:46Z</time>
            </trkpt>
            <trkpt lon="99.639289" lat="13.183448">
                <ele>103.000000</ele>
                <time>2013-11-23T07:51:25Z</time>
            </trkpt>
            <trkpt lon="99.635947" lat="13.183415">
                <ele>110.690000</ele>
                <time>2013-11-23T07:52:43Z</time>
            </trkpt>
            <trkpt lon="99.635033" lat="13.183019">
                <ele>114.050000</ele>
                <time>2013-11-23T07:53:08Z</time>
            </trkpt>
            <trkpt lon="99.634490" lat="13.182344">
                <ele>118.860000</ele>
                <time>2013-11-23T07:53:33Z</time>
            </trkpt>
            <trkpt lon="99.634039" lat="13.182316">
                <ele>121.740000</ele>
                <time>2013-11-23T07:53:49Z</time>
            </trkpt>
            <trkpt lon="99.633036" lat="13.183678">
                <ele>115.980000</ele>
                <time>2013-11-23T07:54:11Z</time>
            </trkpt>
            <trkpt lon="99.633241" lat="13.184505">
                <ele>113.090000</ele>
                <time>2013-11-23T07:54:38Z</time>
            </trkpt>
            <trkpt lon="99.632995" lat="13.184702">
                <ele>113.090000</ele>
                <time>2013-11-23T07:54:49Z</time>
            </trkpt>
            <trkpt lon="99.633357" lat="13.185629">
                <ele>110.210000</ele>
                <time>2013-11-23T07:55:08Z</time>
            </trkpt>
            <trkpt lon="99.635062" lat="13.186223">
                <ele>103.480000</ele>
                <time>2013-11-23T07:55:33Z</time>
            </trkpt>
            <trkpt lon="99.635323" lat="13.186627">
                <ele>101.560000</ele>
                <time>2013-11-23T07:56:04Z</time>
            </trkpt>
            <trkpt lon="99.634848" lat="13.188541">
                <ele>103.000000</ele>
                <time>2013-11-23T07:57:01Z</time>
            </trkpt>
            <trkpt lon="99.636532" lat="13.188422">
                <ele>103.480000</ele>
                <time>2013-11-23T08:08:05Z</time>
            </trkpt>
            <trkpt lon="99.636905" lat="13.188986">
                <ele>108.290000</ele>
                <time>2013-11-23T08:15:15Z</time>
            </trkpt>
            <trkpt lon="99.637007" lat="13.189596">
                <ele>109.250000</ele>
                <time>2013-11-23T08:15:41Z</time>
            </trkpt>
            <trkpt lon="99.637251" lat="13.190179">
                <ele>110.210000</ele>
                <time>2013-11-23T08:16:25Z</time>
            </trkpt>
            <trkpt lon="99.639398" lat="13.189352">
                <ele>106.360000</ele>
                <time>2013-11-23T08:17:58Z</time>
            </trkpt>
            <trkpt lon="99.643845" lat="13.186964">
                <ele>110.690000</ele>
                <time>2013-11-23T08:19:32Z</time>
            </trkpt>
            <trkpt lon="99.644138" lat="13.187981">
                <ele>114.050000</ele>
                <time>2013-11-23T08:20:15Z</time>
            </trkpt>
            <trkpt lon="99.643919" lat="13.186981">
                <ele>111.170000</ele>
                <time>2013-11-23T08:20:49Z</time>
            </trkpt>
            <trkpt lon="99.645058" lat="13.186298">
                <ele>110.690000</ele>
                <time>2013-11-23T08:40:14Z</time>
            </trkpt>
            <trkpt lon="99.645149" lat="13.186208">
                <ele>109.730000</ele>
                <time>2013-11-23T08:40:24Z</time>
            </trkpt>
            <trkpt lon="99.644990" lat="13.185225">
                <ele>110.690000</ele>
                <time>2013-11-23T08:41:01Z</time>
            </trkpt>
            <trkpt lon="99.644665" lat="13.185196">
                <ele>112.610000</ele>
                <time>2013-11-23T08:41:20Z</time>
            </trkpt>
            <trkpt lon="99.643945" lat="13.184908">
                <ele>110.210000</ele>
                <time>2013-11-23T08:41:40Z</time>
            </trkpt>
            <trkpt lon="99.644135" lat="13.183945">
                <ele>107.320000</ele>
                <time>2013-11-23T08:41:59Z</time>
            </trkpt>
            <trkpt lon="99.644073" lat="13.183523">
                <ele>101.560000</ele>
                <time>2013-11-23T08:42:10Z</time>
            </trkpt>
            <trkpt lon="99.645194" lat="13.182561">
                <ele>101.560000</ele>
                <time>2013-11-23T08:42:39Z</time>
            </trkpt>
            <trkpt lon="99.645481" lat="13.182590">
                <ele>102.040000</ele>
                <time>2013-11-23T08:42:45Z</time>
            </trkpt>
            <trkpt lon="99.645608" lat="13.183009">
                <ele>103.480000</ele>
                <time>2013-11-23T08:42:58Z</time>
            </trkpt>
            <trkpt lon="99.645532" lat="13.183913">
                <ele>104.920000</ele>
                <time>2013-11-23T08:43:19Z</time>
            </trkpt>
            <trkpt lon="99.645186" lat="13.183952">
                <ele>105.400000</ele>
                <time>2013-11-23T08:43:31Z</time>
            </trkpt>
            <trkpt lon="99.645194" lat="13.184014">
                <ele>105.400000</ele>
                <time>2013-11-23T08:43:37Z</time>
            </trkpt>
            <trkpt lon="99.646993" lat="13.184072">
                <ele>102.040000</ele>
                <time>2013-11-23T08:44:08Z</time>
            </trkpt>
            <trkpt lon="99.647201" lat="13.184607">
                <ele>103.000000</ele>
                <time>2013-11-23T08:44:20Z</time>
            </trkpt>
            <trkpt lon="99.647864" lat="13.184749">
                <ele>103.000000</ele>
                <time>2013-11-23T08:44:33Z</time>
            </trkpt>
            <trkpt lon="99.647821" lat="13.185794">
                <ele>105.400000</ele>
                <time>2013-11-23T08:45:06Z</time>
            </trkpt>
            <trkpt lon="99.647026" lat="13.185908">
                <ele>107.320000</ele>
                <time>2013-11-23T08:45:24Z</time>
            </trkpt>
            <trkpt lon="99.646669" lat="13.186882">
                <ele>113.570000</ele>
                <time>2013-11-23T08:46:00Z</time>
            </trkpt>
            <trkpt lon="99.646898" lat="13.187641">
                <ele>117.900000</ele>
                <time>2013-11-23T08:46:32Z</time>
            </trkpt>
            <trkpt lon="99.647420" lat="13.187336">
                <ele>122.220000</ele>
                <time>2013-11-23T08:46:53Z</time>
            </trkpt>
            <trkpt lon="99.648300" lat="13.185827">
                <ele>105.400000</ele>
                <time>2013-11-23T08:47:30Z</time>
            </trkpt>
            <trkpt lon="99.649632" lat="13.186020">
                <ele>103.480000</ele>
                <time>2013-11-23T08:47:49Z</time>
            </trkpt>
            <trkpt lon="99.651873" lat="13.187596">
                <ele>102.520000</ele>
                <time>2013-11-23T08:48:34Z</time>
            </trkpt>
            <trkpt lon="99.652784" lat="13.187953">
                <ele>102.520000</ele>
                <time>2013-11-23T08:48:49Z</time>
            </trkpt>
            <trkpt lon="99.658353" lat="13.187671">
                <ele>102.520000</ele>
                <time>2013-11-23T08:50:07Z</time>
            </trkpt>
            <trkpt lon="99.658682" lat="13.187163">
                <ele>103.000000</ele>
                <time>2013-11-23T08:50:18Z</time>
            </trkpt>
            <trkpt lon="99.660845" lat="13.187080">
                <ele>104.440000</ele>
                <time>2013-11-23T08:51:04Z</time>
            </trkpt>
            <trkpt lon="99.661571" lat="13.186404">
                <ele>112.610000</ele>
                <time>2013-11-23T08:51:39Z</time>
            </trkpt>
            <trkpt lon="99.662080" lat="13.186152">
                <ele>113.570000</ele>
                <time>2013-11-23T08:51:57Z</time>
            </trkpt>
            <trkpt lon="99.662126" lat="13.186141">
                <ele>113.570000</ele>
                <time>2013-11-23T08:51:58Z</time>
            </trkpt>
            <trkpt lon="99.664167" lat="13.186077">
                <ele>102.040000</ele>
                <time>2013-11-23T08:52:31Z</time>
            </trkpt>
            <trkpt lon="99.664164" lat="13.186306">
                <ele>103.000000</ele>
                <time>2013-11-23T08:52:37Z</time>
            </trkpt>
            <trkpt lon="99.663642" lat="13.186668">
                <ele>103.480000</ele>
                <time>2013-11-23T08:52:53Z</time>
            </trkpt>
            <trkpt lon="99.663829" lat="13.187252">
                <ele>102.040000</ele>
                <time>2013-11-23T08:53:07Z</time>
            </trkpt>
            <trkpt lon="99.675848" lat="13.198335">
                <ele>102.520000</ele>
                <time>2013-11-23T08:57:13Z</time>
            </trkpt>
            <trkpt lon="99.676722" lat="13.198263">
                <ele>107.320000</ele>
                <time>2013-11-23T08:57:40Z</time>
            </trkpt>
            <trkpt lon="99.677101" lat="13.197892">
                <ele>101.080000</ele>
                <time>2013-11-23T08:57:58Z</time>
            </trkpt>
            <trkpt lon="99.677551" lat="13.198993">
                <ele>104.920000</ele>
                <time>2013-11-23T08:58:31Z</time>
            </trkpt>
            <trkpt lon="99.677522" lat="13.199554">
                <ele>106.360000</ele>
                <time>2013-11-23T08:58:44Z</time>
            </trkpt>
            <trkpt lon="99.677022" lat="13.200197">
                <ele>116.460000</ele>
                <time>2013-11-23T08:59:29Z</time>
            </trkpt>
            <trkpt lon="99.676797" lat="13.201133">
                <ele>112.130000</ele>
                <time>2013-11-23T08:59:55Z</time>
            </trkpt>
            <trkpt lon="99.677165" lat="13.204116">
                <ele>103.000000</ele>
                <time>2013-11-23T09:00:47Z</time>
            </trkpt>
            <trkpt lon="99.677894" lat="13.204982">
                <ele>104.920000</ele>
                <time>2013-11-23T09:01:53Z</time>
            </trkpt>
            <trkpt lon="99.678507" lat="13.205400">
                <ele>104.920000</ele>
                <time>2013-11-23T09:02:16Z</time>
            </trkpt>
            <trkpt lon="99.677533" lat="13.206079">
                <ele>116.460000</ele>
                <time>2013-11-23T09:03:18Z</time>
            </trkpt>
            <trkpt lon="99.677513" lat="13.206768">
                <ele>123.670000</ele>
                <time>2013-11-23T09:03:58Z</time>
            </trkpt>
            <trkpt lon="99.677894" lat="13.206935">
                <ele>124.150000</ele>
                <time>2013-11-23T09:04:14Z</time>
            </trkpt>
            <trkpt lon="99.678834" lat="13.209190">
                <ele>119.340000</ele>
                <time>2013-11-23T09:04:56Z</time>
            </trkpt>
            <trkpt lon="99.680190" lat="13.209169">
                <ele>123.670000</ele>
                <time>2013-11-23T09:05:24Z</time>
            </trkpt>
            <trkpt lon="99.680924" lat="13.208834">
                <ele>124.630000</ele>
                <time>2013-11-23T09:05:41Z</time>
            </trkpt>
            <trkpt lon="99.682954" lat="13.208680">
                <ele>116.940000</ele>
                <time>2013-11-23T09:06:13Z</time>
            </trkpt>
            <trkpt lon="99.683645" lat="13.209513">
                <ele>115.980000</ele>
                <time>2013-11-23T09:06:45Z</time>
            </trkpt>
            <trkpt lon="99.686672" lat="13.209384">
                <ele>110.210000</ele>
                <time>2013-11-23T09:07:39Z</time>
            </trkpt>
            <trkpt lon="99.686881" lat="13.210841">
                <ele>115.500000</ele>
                <time>2013-11-23T09:08:37Z</time>
            </trkpt>
            <trkpt lon="99.688980" lat="13.211030">
                <ele>120.300000</ele>
                <time>2013-11-23T09:09:38Z</time>
            </trkpt>
            <trkpt lon="99.689259" lat="13.212682">
                <ele>121.260000</ele>
                <time>2013-11-23T09:10:12Z</time>
            </trkpt>
            <trkpt lon="99.690447" lat="13.215128">
                <ele>110.210000</ele>
                <time>2013-11-23T09:11:16Z</time>
            </trkpt>
            <trkpt lon="99.692132" lat="13.216411">
                <ele>107.810000</ele>
                <time>2013-11-23T09:12:22Z</time>
            </trkpt>
            <trkpt lon="99.693717" lat="13.211906">
                <ele>106.840000</ele>
                <time>2013-11-23T09:14:04Z</time>
            </trkpt>
            <trkpt lon="99.694403" lat="13.211770">
                <ele>104.920000</ele>
                <time>2013-11-23T09:14:18Z</time>
            </trkpt>
            <trkpt lon="99.694615" lat="13.210892">
                <ele>102.040000</ele>
                <time>2013-11-23T09:14:31Z</time>
            </trkpt>
            <trkpt lon="99.694654" lat="13.210729">
                <ele>100.110000</ele>
                <time>2013-11-23T09:14:34Z</time>
            </trkpt>
            <trkpt lon="99.695729" lat="13.210523">
                <ele>99.150000</ele>
                <time>2013-11-23T09:14:57Z</time>
            </trkpt>
            <trkpt lon="99.696418" lat="13.210110">
                <ele>96.270000</ele>
                <time>2013-11-23T09:15:21Z</time>
            </trkpt>
            <trkpt lon="99.696698" lat="13.209652">
                <ele>98.190000</ele>
                <time>2013-11-23T09:16:02Z</time>
            </trkpt>
            <trkpt lon="99.696838" lat="13.209774">
                <ele>97.710000</ele>
                <time>2013-11-23T09:16:14Z</time>
            </trkpt>
            <trkpt lon="99.697401" lat="13.208161">
                <ele>97.230000</ele>
                <time>2013-11-23T09:16:59Z</time>
            </trkpt>
            <trkpt lon="99.694950" lat="13.204371">
                <ele>97.230000</ele>
                <time>2013-11-23T09:18:11Z</time>
            </trkpt>
            <trkpt lon="99.695451" lat="13.205222">
                <ele>97.230000</ele>
                <time>2013-11-23T09:18:36Z</time>
            </trkpt>
            <trkpt lon="99.694716" lat="13.205948">
                <ele>99.150000</ele>
                <time>2013-11-23T09:19:25Z</time>
            </trkpt>
            <trkpt lon="99.694184" lat="13.207004">
                <ele>102.520000</ele>
                <time>2013-11-23T09:20:14Z</time>
            </trkpt>
            <trkpt lon="99.694090" lat="13.207216">
                <ele>102.520000</ele>
                <time>2013-11-23T09:20:21Z</time>
            </trkpt>
            <trkpt lon="99.693289" lat="13.207617">
                <ele>104.920000</ele>
                <time>2013-11-23T09:20:48Z</time>
            </trkpt>
            <trkpt lon="99.693073" lat="13.208772">
                <ele>107.810000</ele>
                <time>2013-11-23T09:21:22Z</time>
            </trkpt>
            <trkpt lon="99.693030" lat="13.209037">
                <ele>107.320000</ele>
                <time>2013-11-23T09:21:32Z</time>
            </trkpt>
            <trkpt lon="99.691840" lat="13.209599">
                <ele>111.170000</ele>
                <time>2013-11-23T09:22:13Z</time>
            </trkpt>
            <trkpt lon="99.690451" lat="13.209744">
                <ele>115.980000</ele>
                <time>2013-11-23T09:23:03Z</time>
            </trkpt>
            <trkpt lon="99.689928" lat="13.209532">
                <ele>116.940000</ele>
                <time>2013-11-23T09:23:18Z</time>
            </trkpt>
            <trkpt lon="99.688977" lat="13.208954">
                <ele>115.500000</ele>
                <time>2013-11-23T09:23:39Z</time>
            </trkpt>
            <trkpt lon="99.688159" lat="13.209042">
                <ele>114.050000</ele>
                <time>2013-11-23T09:23:53Z</time>
            </trkpt>
            <trkpt lon="99.687082" lat="13.208342">
                <ele>110.210000</ele>
                <time>2013-11-23T09:24:12Z</time>
            </trkpt>
            <trkpt lon="99.686013" lat="13.206845">
                <ele>106.360000</ele>
                <time>2013-11-23T09:24:55Z</time>
            </trkpt>
            <trkpt lon="99.684509" lat="13.206932">
                <ele>109.250000</ele>
                <time>2013-11-23T09:25:46Z</time>
            </trkpt>
            <trkpt lon="99.683206" lat="13.205124">
                <ele>111.170000</ele>
                <time>2013-11-23T09:27:08Z</time>
            </trkpt>
            <trkpt lon="99.682922" lat="13.203889">
                <ele>111.170000</ele>
                <time>2013-11-23T09:27:38Z</time>
            </trkpt>
            <trkpt lon="99.683608" lat="13.202016">
                <ele>107.810000</ele>
                <time>2013-11-23T09:28:15Z</time>
            </trkpt>
            <trkpt lon="99.683840" lat="13.200908">
                <ele>104.920000</ele>
                <time>2013-11-23T09:28:35Z</time>
            </trkpt>
            <trkpt lon="99.685584" lat="13.200400">
                <ele>101.560000</ele>
                <time>2013-11-23T09:29:02Z</time>
            </trkpt>
            <trkpt lon="99.685693" lat="13.200158">
                <ele>101.560000</ele>
                <time>2013-11-23T09:29:07Z</time>
            </trkpt>
            <trkpt lon="99.685226" lat="13.197306">
                <ele>97.230000</ele>
                <time>2013-11-23T09:29:49Z</time>
            </trkpt>
            <trkpt lon="99.687681" lat="13.197113">
                <ele>92.420000</ele>
                <time>2013-11-23T09:30:33Z</time>
            </trkpt>
            <trkpt lon="99.688310" lat="13.197310">
                <ele>93.390000</ele>
                <time>2013-11-23T09:30:50Z</time>
            </trkpt>
            <trkpt lon="99.688481" lat="13.197099">
                <ele>93.870000</ele>
                <time>2013-11-23T09:30:58Z</time>
            </trkpt>
            <trkpt lon="99.688747" lat="13.194937">
                <ele>93.390000</ele>
                <time>2013-11-23T09:31:32Z</time>
            </trkpt>
            <trkpt lon="99.688567" lat="13.194695">
                <ele>93.870000</ele>
                <time>2013-11-23T09:31:37Z</time>
            </trkpt>
            <trkpt lon="99.686877" lat="13.186611">
                <ele>87.620000</ele>
                <time>2013-11-23T09:33:36Z</time>
            </trkpt>
            <trkpt lon="99.686278" lat="13.186532">
                <ele>87.620000</ele>
                <time>2013-11-23T09:33:49Z</time>
            </trkpt>
            <trkpt lon="99.685757" lat="13.187269">
                <ele>88.580000</ele>
                <time>2013-11-23T09:34:08Z</time>
            </trkpt>
            <trkpt lon="99.683331" lat="13.188667">
                <ele>96.750000</ele>
                <time>2013-11-23T09:35:14Z</time>
            </trkpt>
            <trkpt lon="99.682890" lat="13.188507">
                <ele>97.710000</ele>
                <time>2013-11-23T09:35:28Z</time>
            </trkpt>
            <trkpt lon="99.682850" lat="13.188007">
                <ele>99.150000</ele>
                <time>2013-11-23T09:35:46Z</time>
            </trkpt>
            <trkpt lon="99.682468" lat="13.187330">
                <ele>101.080000</ele>
                <time>2013-11-23T09:36:10Z</time>
            </trkpt>
            <trkpt lon="99.681859" lat="13.186440">
                <ele>102.520000</ele>
                <time>2013-11-23T09:36:37Z</time>
            </trkpt>
            <trkpt lon="99.680795" lat="13.186264">
                <ele>107.810000</ele>
                <time>2013-11-23T09:37:15Z</time>
            </trkpt>
            <trkpt lon="99.680575" lat="13.186222">
                <ele>107.320000</ele>
                <time>2013-11-23T09:37:23Z</time>
            </trkpt>
            <trkpt lon="99.680517" lat="13.185898">
                <ele>107.320000</ele>
                <time>2013-11-23T09:37:33Z</time>
            </trkpt>
            <trkpt lon="99.680399" lat="13.185451">
                <ele>106.840000</ele>
                <time>2013-11-23T09:37:50Z</time>
            </trkpt>
            <trkpt lon="99.679318" lat="13.184845">
                <ele>109.250000</ele>
                <time>2013-11-23T09:38:58Z</time>
            </trkpt>
            <trkpt lon="99.679317" lat="13.184845">
                <ele>109.250000</ele>
                <time>2013-11-23T09:39:12Z</time>
            </trkpt>
        </trkseg>
    </trk>
</gpx>